Chemical Pioneer — KAFO — position and weather

sailwx.info

Track history (hours):
 
Tides and Currents Weather Stations Pressure Air Temp Water Temp Dewpoint Dewpoint Depression Visibility Wind Speed Wind Dir Waves Ship Positions

Chemical Pioneer

Owner: US Shipping Corp, Edison, NJ. More information available from US FCC via Universal Licensing System and Coast Guard Vessel Documentation Center.

Last reported at 2015-Jan-24 19:09 UTC. Time now 2015-Jan-25 22:27 UTC.
Position N 39°27' W 073°51'.

Type: Tanker. MMSI: 366032000.

Date/timePositionNaut miles runAvg speedWind from/ knotsBaromVisibWave heightAir tempDewpointWater temp
2015-Jan-24 19:09N 39°27' W 073°51'5 8.8
2015-Jan-24 18:33N 39°32' W 073°51'10 9.8
2015-Jan-24 17:30N 39°43' W 073°51'1916.6
2015-Jan-24 16:23N 40°01' W 073°50'2111.3
2015-Jan-24 14:31N 40°22' W 073°51'9 9.5
2015-Jan-24 13:32N 40°29' W 073°60'11 5.7
2015-Jan-24 11:33N 40°35' W 074°13'0 0.0
2015-Jan-23 19:22N 40°35' W 074°12'0 0.0
2015-Jan-23 17:07N 40°35' W 074°12'2 1.2
2015-Jan-23 15:32N 40°37' W 074°12'5 2.3
2015-Jan-23 13:33N 40°39' W 074°07'0 0.0
2015-Jan-23 12:33N 40°39' W 074°07'0 0.0
2015-Jan-23 11:27N 40°39' W 074°07'0 0.0
2015-Jan-23 10:27N 40°39' W 074°07'0 0.0
2015-Jan-23 09:33N 40°39' W 074°07'0 0.0
2015-Jan-23 04:04N 40°39' W 074°07'0 0.0
2015-Jan-23 03:21N 40°39' W 074°07'0 0.0
2015-Jan-23 02:21N 40°39' W 074°07'0 0.0
2015-Jan-23 01:33N 40°39' W 074°07'0 0.0
2015-Jan-23 00:21N 40°39' W 074°07'0 0.0
2015-Jan-22 23:33N 40°39' W 074°07'0 0.0
2015-Jan-22 22:33N 40°39' W 074°07'0 0.0
2015-Jan-22 21:33N 40°39' W 074°07'0 0.1
2015-Jan-22 20:21N 40°39' W 074°07'1 0.7
2015-Jan-22 19:31N 40°39' W 074°06'0 0.0
2015-Jan-22 18:31N 40°39' W 074°06'0 0.0
2015-Jan-22 17:31N 40°39' W 074°06'0 0.0
2015-Jan-22 16:25N 40°39' W 074°06'0 0.0
2015-Jan-22 15:31N 40°39' W 074°06'0 0.0
2015-Jan-22 14:31N 40°39' W 074°06'0 0.0
2015-Jan-22 13:25N 40°39' W 074°06'0 0.0
2015-Jan-22 12:31N 40°39' W 074°06'0 0.0
2015-Jan-22 11:25N 40°39' W 074°06'0 0.0
2015-Jan-22 10:31N 40°39' W 074°06'0 0.0
2015-Jan-22 09:31N 40°39' W 074°06'0 0.0
2015-Jan-22 08:31N 40°39' W 074°06'0 0.0
2015-Jan-22 07:31N 40°39' W 074°06'0 0.0
2015-Jan-22 06:31N 40°39' W 074°06'0 0.0
2015-Jan-22 05:31N 40°39' W 074°06'0 0.0
2015-Jan-22 04:31N 40°39' W 074°06'0 0.0
2015-Jan-22 03:31N 40°39' W 074°06'0 0.0
2015-Jan-22 02:31N 40°39' W 074°06'0 0.0
2015-Jan-22 01:31N 40°39' W 074°06'0 0.0
2015-Jan-22 00:31N 40°39' W 074°06'0 0.0
2015-Jan-21 23:25N 40°39' W 074°06'0 0.0
2015-Jan-21 22:37N 40°39' W 074°06'0 0.1
2015-Jan-21 22:31N 40°39' W 074°06'0 0.0
2015-Jan-21 21:31N 40°39' W 074°06'0 0.0
2015-Jan-21 20:31N 40°39' W 074°06'0 0.0
2015-Jan-21 19:13N 40°39' W 074°06'0 0.0
2015-Jan-21 18:31N 40°39' W 074°06'0 0.0
2015-Jan-21 17:31N 40°39' W 074°06'0 0.0
2015-Jan-21 16:31N 40°39' W 074°06'0 0.0
2015-Jan-21 15:31N 40°39' W 074°06'0 0.0
2015-Jan-21 14:25N 40°39' W 074°06'0 0.0
2015-Jan-21 13:31N 40°39' W 074°06'0 0.0
2015-Jan-21 12:31N 40°39' W 074°06'0 0.0
2015-Jan-21 11:31N 40°39' W 074°06'0 0.0
2015-Jan-21 10:31N 40°39' W 074°06'0 0.0
2015-Jan-21 09:19N 40°39' W 074°06'0 0.0
2015-Jan-21 08:31N 40°39' W 074°06'0 0.0
2015-Jan-21 07:19N 40°39' W 074°06'0 0.0
2015-Jan-21 06:31N 40°39' W 074°06'0 0.0
2015-Jan-21 05:31N 40°39' W 074°06'0 0.0
2015-Jan-21 04:31N 40°39' W 074°06'0 0.0
2015-Jan-21 03:31N 40°39' W 074°06'0 0.0
2015-Jan-21 02:31N 40°39' W 074°06'0 0.0
2015-Jan-21 01:31N 40°39' W 074°06'0 0.0
2015-Jan-21 00:25N 40°39' W 074°06'0 0.0
2015-Jan-20 23:31N 40°39' W 074°06'0 0.0
2015-Jan-20 22:31N 40°39' W 074°06'0 0.0
2015-Jan-20 21:31N 40°39' W 074°06'0 0.0
2015-Jan-20 20:31N 40°39' W 074°06'3 2.9
2015-Jan-20 19:33N 40°37' W 074°03'7 7.3
2015-Jan-20 18:33N 40°31' W 073°59'9 9.1
2015-Jan-20 17:33N 40°25' W 073°49'9 8.9
2015-Jan-20 16:33N 40°17' W 073°46'1111.4
2015-Jan-20 15:33N 40°05' W 073°44'1515.2
2015-Jan-20 14:32N 39°50' W 073°42'  
2015-Jan-16 21:24N 26°50' W 079°43'1113.2
2015-Jan-16 20:33N 26°39' W 079°45'1313.4
2015-Jan-16 19:33N 26°26' W 079°46'1313.5
2015-Jan-16 18:33N 26°13' W 079°48'1313.3
2015-Jan-16 17:34N 25°59' W 079°50'1413.7
2015-Jan-16 16:33N 25°46' W 079°52'  
Track history (hours):
 
Tides and Currents Weather Stations Pressure Air Temp Water Temp Dewpoint Dewpoint Depression Visibility Wind Speed Wind Dir Waves Ship Positions

Chemical Pioneer

Owner: US Shipping Corp, Edison, NJ. More information available from US FCC via Universal Licensing System and Coast Guard Vessel Documentation Center.

Last reported at 2015-Jan-24 19:09 UTC. Time now 2015-Jan-25 22:27 UTC.
Position N 39°27' W 073°51'.

Type: Tanker. MMSI: 366032000.

Date/timePositionNaut miles runAvg speedWind from/ knotsBaromVisibWave heightAir tempDewpointWater temp
2015-Jan-24 19:09N 39°27' W 073°51'5 8.8
2015-Jan-24 18:33N 39°32' W 073°51'10 9.8
2015-Jan-24 17:30N 39°43' W 073°51'1916.6
2015-Jan-24 16:23N 40°01' W 073°50'2111.3
2015-Jan-24 14:31N 40°22' W 073°51'9 9.5
2015-Jan-24 13:32N 40°29' W 073°60'11 5.7
2015-Jan-24 11:33N 40°35' W 074°13'0 0.0
2015-Jan-23 19:22N 40°35' W 074°12'0 0.0
2015-Jan-23 17:07N 40°35' W 074°12'2 1.2
2015-Jan-23 15:32N 40°37' W 074°12'5 2.3
2015-Jan-23 13:33N 40°39' W 074°07'0 0.0
2015-Jan-23 12:33N 40°39' W 074°07'0 0.0
2015-Jan-23 11:27N 40°39' W 074°07'0 0.0
2015-Jan-23 10:27N 40°39' W 074°07'0 0.0
2015-Jan-23 09:33N 40°39' W 074°07'0 0.0
2015-Jan-23 04:04N 40°39' W 074°07'0 0.0
2015-Jan-23 03:21N 40°39' W 074°07'0 0.0
2015-Jan-23 02:21N 40°39' W 074°07'0 0.0
2015-Jan-23 01:33N 40°39' W 074°07'0 0.0
2015-Jan-23 00:21N 40°39' W 074°07'0 0.0
2015-Jan-22 23:33N 40°39' W 074°07'0 0.0
2015-Jan-22 22:33N 40°39' W 074°07'0 0.0
2015-Jan-22 21:33N 40°39' W 074°07'0 0.1
2015-Jan-22 20:21N 40°39' W 074°07'1 0.7
2015-Jan-22 19:31N 40°39' W 074°06'0 0.0
2015-Jan-22 18:31N 40°39' W 074°06'0 0.0
2015-Jan-22 17:31N 40°39' W 074°06'0 0.0
2015-Jan-22 16:25N 40°39' W 074°06'0 0.0
2015-Jan-22 15:31N 40°39' W 074°06'0 0.0
2015-Jan-22 14:31N 40°39' W 074°06'0 0.0
2015-Jan-22 13:25N 40°39' W 074°06'0 0.0
2015-Jan-22 12:31N 40°39' W 074°06'0 0.0
2015-Jan-22 11:25N 40°39' W 074°06'0 0.0
2015-Jan-22 10:31N 40°39' W 074°06'0 0.0
2015-Jan-22 09:31N 40°39' W 074°06'0 0.0
2015-Jan-22 08:31N 40°39' W 074°06'0 0.0
2015-Jan-22 07:31N 40°39' W 074°06'0 0.0
2015-Jan-22 06:31N 40°39' W 074°06'0 0.0
2015-Jan-22 05:31N 40°39' W 074°06'0 0.0
2015-Jan-22 04:31N 40°39' W 074°06'0 0.0
2015-Jan-22 03:31N 40°39' W 074°06'0 0.0
2015-Jan-22 02:31N 40°39' W 074°06'0 0.0
2015-Jan-22 01:31N 40°39' W 074°06'0 0.0
2015-Jan-22 00:31N 40°39' W 074°06'0 0.0
2015-Jan-21 23:25N 40°39' W 074°06'0 0.0
2015-Jan-21 22:37N 40°39' W 074°06'0 0.1
2015-Jan-21 22:31N 40°39' W 074°06'0 0.0
2015-Jan-21 21:31N 40°39' W 074°06'0 0.0
2015-Jan-21 20:31N 40°39' W 074°06'0 0.0
2015-Jan-21 19:13N 40°39' W 074°06'0 0.0
2015-Jan-21 18:31N 40°39' W 074°06'0 0.0
2015-Jan-21 17:31N 40°39' W 074°06'0 0.0
2015-Jan-21 16:31N 40°39' W 074°06'0 0.0
2015-Jan-21 15:31N 40°39' W 074°06'0 0.0
2015-Jan-21 14:25N 40°39' W 074°06'0 0.0
2015-Jan-21 13:31N 40°39' W 074°06'0 0.0
2015-Jan-21 12:31N 40°39' W 074°06'0 0.0
2015-Jan-21 11:31N 40°39' W 074°06'0 0.0
2015-Jan-21 10:31N 40°39' W 074°06'0 0.0
2015-Jan-21 09:19N 40°39' W 074°06'0 0.0
2015-Jan-21 08:31N 40°39' W 074°06'0 0.0
2015-Jan-21 07:19N 40°39' W 074°06'0 0.0
2015-Jan-21 06:31N 40°39' W 074°06'0 0.0
2015-Jan-21 05:31N 40°39' W 074°06'0 0.0
2015-Jan-21 04:31N 40°39' W 074°06'0 0.0
2015-Jan-21 03:31N 40°39' W 074°06'0 0.0
2015-Jan-21 02:31N 40°39' W 074°06'0 0.0
2015-Jan-21 01:31N 40°39' W 074°06'0 0.0
2015-Jan-21 00:25N 40°39' W 074°06'0 0.0
2015-Jan-20 23:31N 40°39' W 074°06'0 0.0
2015-Jan-20 22:31N 40°39' W 074°06'0 0.0
2015-Jan-20 21:31N 40°39' W 074°06'0 0.0
2015-Jan-20 20:31N 40°39' W 074°06'3 2.9
2015-Jan-20 19:33N 40°37' W 074°03'7 7.3
2015-Jan-20 18:33N 40°31' W 073°59'9 9.1
2015-Jan-20 17:33N 40°25' W 073°49'9 8.9
2015-Jan-20 16:33N 40°17' W 073°46'1111.4
2015-Jan-20 15:33N 40°05' W 073°44'1515.2
2015-Jan-20 14:32N 39°50' W 073°42'  
2015-Jan-16 21:24N 26°50' W 079°43'1113.2
2015-Jan-16 20:33N 26°39' W 079°45'1313.4
2015-Jan-16 19:33N 26°26' W 079°46'1313.5
2015-Jan-16 18:33N 26°13' W 079°48'1313.3
2015-Jan-16 17:34N 25°59' W 079°50'1413.7
2015-Jan-16 16:33N 25°46' W 079°52'  

Dump ship's entire track history